createdAt,value
2023-05-02T00:01:28.264Z,97022.78
2023-05-02T00:03:56.027Z,97025.22
2023-05-02T00:06:23.862Z,97025.44
2023-05-02T00:08:51.731Z,97021.22
2023-05-02T00:11:19.295Z,97015.31
2023-05-02T00:13:48.396Z,97023.03
2023-05-02T00:16:16.030Z,97012.75
2023-05-02T00:18:43.562Z,97013.38
2023-05-02T00:21:11.400Z,97015.41
2023-05-02T00:23:38.889Z,97006.22
2023-05-02T00:26:10.115Z,97002.94
2023-05-02T00:28:37.657Z,97000.84
2023-05-02T00:31:07.419Z,97000.56
2023-05-02T00:33:34.987Z,97009.03
2023-05-02T00:36:02.485Z,97001.38
2023-05-02T00:38:30.130Z,97003.41
2023-05-02T00:40:57.728Z,97006.19
2023-05-02T00:43:25.944Z,97002.91
2023-05-02T00:45:53.661Z,97015.19
2023-05-02T00:48:23.218Z,97002.03
2023-05-02T00:50:50.796Z,97000.00
2023-05-02T00:53:18.915Z,97003.38
2023-05-02T00:55:46.887Z,97000.59
2023-05-02T00:58:16.744Z,96997.56
2023-05-02T01:01:00.821Z,97002.28
2023-05-02T01:03:40.547Z,97006.88
2023-05-02T01:06:29.459Z,97003.00
2023-05-02T01:09:10.558Z,97001.13
2023-05-02T01:11:45.627Z,97000.94
2023-05-02T01:14:14.054Z,97000.66
2023-05-02T01:16:44.675Z,97001.38
2023-05-02T01:19:24.321Z,97008.97
2023-05-02T01:21:54.210Z,97010.25
2023-05-02T01:24:27.645Z,97019.16
2023-05-02T01:27:02.823Z,97004.34
2023-05-02T01:29:34.084Z,97010.25
2023-05-02T01:32:03.494Z,97009.44
2023-05-02T01:34:32.508Z,97016.50
2023-05-02T01:37:02.216Z,97012.53
2023-05-02T01:39:31.256Z,97026.28
2023-05-02T01:42:03.501Z,97015.56
2023-05-02T01:44:35.906Z,97013.84
2023-05-02T01:47:07.008Z,97016.78
2023-05-02T01:49:36.302Z,97022.66
2023-05-02T01:52:11.510Z,97020.13
2023-05-02T01:54:41.348Z,97027.00
2023-05-02T01:57:11.505Z,97035.38
2023-05-02T01:59:41.907Z,97024.97
2023-05-02T02:02:12.438Z,97025.59
2023-05-02T02:04:41.525Z,97026.41
2023-05-02T02:07:11.822Z,97028.59
2023-05-02T02:09:39.819Z,97030.75
2023-05-02T02:12:12.206Z,97036.47
2023-05-02T02:14:47.167Z,97039.69
2023-05-02T02:17:22.296Z,97036.97
2023-05-02T02:19:54.263Z,97048.16
2023-05-02T02:22:22.483Z,97045.59
2023-05-02T02:24:54.215Z,97048.34
2023-05-02T02:27:21.855Z,97047.34
2023-05-02T02:29:50.774Z,97049.72
2023-05-02T02:32:18.324Z,97049.72
2023-05-02T02:34:45.924Z,97046.75
2023-05-02T02:37:18.948Z,97055.88
2023-05-02T02:39:56.159Z,97050.88
2023-05-02T02:42:30.844Z,97045.16
2023-05-02T02:45:06.929Z,97055.03
2023-05-02T02:47:42.342Z,97049.63
2023-05-02T02:50:17.623Z,97056.88
2023-05-02T02:52:53.138Z,97051.53
2023-05-02T02:55:31.006Z,97052.00
2023-05-02T02:58:03.533Z,97049.25
2023-05-02T03:00:33.597Z,97057.09
2023-05-02T03:03:01.590Z,97056.41
2023-05-02T03:05:30.700Z,97055.44
2023-05-02T03:08:00.088Z,97061.22
2023-05-02T03:10:27.809Z,97065.97
2023-05-02T03:12:56.121Z,97066.53
2023-05-02T03:16:01.572Z,97060.03
2023-05-02T03:18:29.108Z,97063.66
2023-05-02T03:20:56.708Z,97059.47
2023-05-02T03:23:24.532Z,97066.94
2023-05-02T03:25:52.512Z,97066.13
2023-05-02T03:28:20.093Z,97077.06
2023-05-02T03:30:48.932Z,97074.63
2023-05-02T03:33:16.650Z,97076.66
2023-05-02T03:35:44.743Z,97084.44
2023-05-02T03:38:12.275Z,97085.22
2023-05-02T03:40:39.774Z,97072.38
2023-05-02T03:43:07.425Z,97082.66
2023-05-02T03:45:35.689Z,97083.16
2023-05-02T03:48:04.894Z,97086.91
2023-05-02T03:50:32.568Z,97092.59
2023-05-02T03:53:00.098Z,97090.75
2023-05-02T03:55:28.269Z,97089.22
2023-05-02T03:57:55.807Z,97093.19
2023-05-02T04:00:23.854Z,97091.13
2023-05-02T04:02:51.533Z,97100.75
2023-05-02T04:05:20.787Z,97095.22
2023-05-02T04:07:48.490Z,97097.88
2023-05-02T04:10:17.964Z,97103.69
2023-05-02T04:12:45.508Z,97110.56
2023-05-02T04:15:13.295Z,97110.28
2023-05-02T04:17:40.828Z,97109.19
2023-05-02T04:20:09.781Z,97107.03
2023-05-02T04:22:39.582Z,97109.97
2023-05-02T04:25:07.694Z,97111.97
2023-05-02T04:27:35.325Z,97111.28
2023-05-02T04:30:03.306Z,97108.00
2023-05-02T04:32:31.222Z,97108.41
2023-05-02T04:34:58.762Z,97108.66
2023-05-02T04:37:26.578Z,97104.91
2023-05-02T04:39:55.451Z,97114.53
2023-05-02T04:42:22.966Z,97113.75
2023-05-02T04:44:50.591Z,97117.88
2023-05-02T04:47:18.112Z,97122.19
2023-05-02T04:49:45.593Z,97115.50
2023-05-02T04:52:13.442Z,97123.66
2023-05-02T04:54:40.997Z,97133.78
2023-05-02T04:57:10.184Z,97133.59
2023-05-02T04:59:38.279Z,97145.56
2023-05-02T05:02:06.035Z,97148.91
2023-05-02T05:04:33.706Z,97160.31
2023-05-02T05:07:01.303Z,97164.34
2023-05-02T05:09:29.120Z,97172.47
2023-05-02T05:11:57.189Z,97174.53
2023-05-02T05:14:26.372Z,97182.66
2023-05-02T05:16:54.029Z,97183.88
2023-05-02T05:19:21.546Z,97183.88
2023-05-02T05:21:49.054Z,97185.66
2023-05-02T05:24:16.720Z,97188.44
2023-05-02T05:26:44.266Z,97198.00
2023-05-02T05:29:11.792Z,97206.34
2023-05-02T05:31:41.720Z,97210.50
2023-05-02T05:34:09.355Z,97220.41
2023-05-02T05:36:38.404Z,97218.56
2023-05-02T05:39:06.148Z,97223.16
2023-05-02T05:41:34.066Z,97229.72
2023-05-02T05:44:01.587Z,97234.19
2023-05-02T05:46:29.179Z,97234.88
2023-05-02T05:48:58.060Z,97225.94
2023-05-02T05:53:55.432Z,97222.50
2023-05-02T05:56:23.600Z,97225.81
2023-05-02T05:58:51.132Z,97223.13
2023-05-02T06:01:18.722Z,97219.94
2023-05-02T06:03:46.261Z,97221.41
2023-05-02T06:06:15.432Z,97217.25
2023-05-02T06:08:43.069Z,97222.06
2023-05-02T06:11:11.698Z,97227.88
2023-05-02T06:13:39.555Z,97234.66
2023-05-02T06:16:07.489Z,97233.25
2023-05-02T06:18:35.038Z,97232.81
2023-05-02T06:21:05.425Z,97229.53
2023-05-02T06:23:34.486Z,97235.19
2023-05-02T06:26:02.435Z,97234.09
2023-05-02T06:28:31.043Z,97242.25
2023-05-02T06:30:59.737Z,97236.22
2023-05-02T06:33:27.596Z,97238.19
2023-05-02T06:35:55.290Z,97236.22
2023-05-02T06:38:23.233Z,97235.91
2023-05-02T06:40:52.651Z,97236.50
2023-05-02T06:43:20.208Z,97239.59
2023-05-02T06:45:47.815Z,97246.56
2023-05-02T06:48:15.625Z,97245.81
2023-05-02T06:50:43.483Z,97245.97
2023-05-02T06:53:10.990Z,97250.38
2023-05-02T06:55:38.840Z,97260.09
2023-05-02T06:58:08.228Z,97255.94
2023-05-02T07:00:35.750Z,97260.31
2023-05-02T07:03:03.376Z,97257.47
2023-05-02T07:05:31.181Z,97256.19
2023-05-02T07:07:58.751Z,97260.56
2023-05-02T07:10:26.469Z,97262.75
2023-05-02T07:12:53.980Z,97263.47
2023-05-02T07:15:22.866Z,97269.75
2023-05-02T07:17:50.387Z,97267.06
2023-05-02T07:20:17.959Z,97262.25
2023-05-02T07:22:45.536Z,97265.78
2023-05-02T07:25:13.054Z,97261.16
2023-05-02T07:27:40.527Z,97261.69
2023-05-02T07:30:09.364Z,97261.09
2023-05-02T07:32:38.284Z,97261.38
2023-05-02T07:35:06.578Z,97254.91
2023-05-02T07:37:35.278Z,97256.56
2023-05-02T07:40:03.429Z,97255.13
2023-05-02T07:42:31.622Z,97262.94
2023-05-02T07:45:00.188Z,97262.94
2023-05-02T07:47:27.950Z,97261.28
2023-05-02T07:49:57.197Z,97262.06
2023-05-02T07:52:24.822Z,97260.94
2023-05-02T07:54:52.954Z,97260.03
2023-05-02T07:57:20.492Z,97262.59
2023-05-02T07:59:48.015Z,97268.06
2023-05-02T08:02:17.544Z,97265.78
2023-05-02T08:04:45.249Z,97268.56
2023-05-02T08:07:14.218Z,97268.09
2023-05-02T08:09:41.800Z,97275.63
2023-05-02T08:12:09.400Z,97275.94
2023-05-02T08:14:36.991Z,97282.84
2023-05-02T08:17:04.522Z,97280.72
2023-05-02T08:19:32.141Z,97282.56
2023-05-02T08:22:00.044Z,97291.97
2023-05-02T08:24:29.356Z,97279.88
2023-05-02T08:26:56.872Z,97277.66
2023-05-02T08:29:24.787Z,97280.59
2023-05-02T08:31:52.342Z,97283.44
2023-05-02T08:34:20.045Z,97284.13
2023-05-02T08:36:48.180Z,97289.34
2023-05-02T08:39:16.960Z,97287.53
2023-05-02T08:41:47.800Z,97289.19
2023-05-02T08:44:15.330Z,97291.03
2023-05-02T08:46:43.376Z,97292.00
2023-05-02T08:49:11.592Z,97287.81
2023-05-02T08:51:41.306Z,97283.94
2023-05-02T08:54:10.808Z,97291.88
2023-05-02T08:56:39.209Z,97299.34
2023-05-02T08:59:09.109Z,97299.53
2023-05-02T09:01:38.360Z,97300.44
2023-05-02T09:04:06.219Z,97296.59
2023-05-02T09:06:35.135Z,97299.97
2023-05-02T09:09:03.453Z,97293.28
2023-05-02T09:11:31.237Z,97300.09
2023-05-02T09:14:03.834Z,97300.84
2023-05-02T09:16:40.361Z,97300.97
2023-05-02T09:19:08.334Z,97305.97
2023-05-02T09:21:41.250Z,97296.13
2023-05-02T09:24:19.654Z,97300.25
2023-05-02T09:27:00.821Z,97303.38
2023-05-02T09:29:30.593Z,97303.22
2023-05-02T09:31:59.571Z,97301.72
2023-05-02T09:34:27.127Z,97303.50
2023-05-02T09:36:54.910Z,97297.13
2023-05-02T09:39:25.906Z,97308.28
2023-05-02T09:41:54.733Z,97304.28
2023-05-02T09:44:25.234Z,97300.50
2023-05-02T09:46:54.361Z,97295.16
2023-05-02T09:49:40.572Z,97307.56
2023-05-02T09:52:12.283Z,97302.78
2023-05-02T09:54:40.203Z,97306.47
2023-05-02T09:57:07.917Z,97308.84
2023-05-02T09:59:35.553Z,97320.66
2023-05-02T10:02:04.792Z,97314.59
2023-05-02T10:04:34.912Z,97313.19
2023-05-02T10:07:03.437Z,97326.59
2023-05-02T10:09:36.956Z,97321.84
2023-05-02T10:12:05.207Z,97319.75
2023-05-02T10:14:36.532Z,97322.56
2023-05-02T10:17:11.146Z,97317.28
2023-05-02T10:19:46.331Z,97318.31
2023-05-02T10:22:14.487Z,97309.22
2023-05-02T10:24:42.634Z,97323.88
2023-05-02T10:27:10.305Z,97326.16
2023-05-02T10:29:40.131Z,97325.09
2023-05-02T10:32:09.080Z,97325.28
2023-05-02T10:34:37.305Z,97321.91
2023-05-02T10:37:06.245Z,97325.06
2023-05-02T10:39:34.038Z,97310.81
2023-05-02T10:42:04.366Z,97323.03
2023-05-02T10:44:35.608Z,97314.47
2023-05-02T10:47:18.867Z,97317.28
2023-05-02T10:49:54.146Z,97311.47
2023-05-02T10:52:34.222Z,97312.50
2023-05-02T10:55:15.914Z,97301.81
2023-05-02T10:58:22.014Z,97296.47
2023-05-02T11:00:49.669Z,97290.63
2023-05-02T11:03:55.475Z,97289.50
2023-05-02T11:06:23.018Z,97287.38
2023-05-02T11:08:52.070Z,97284.63
2023-05-02T11:11:42.789Z,97283.09
2023-05-02T11:14:11.151Z,97289.44
2023-05-02T11:17:07.272Z,97285.09
2023-05-02T11:20:08.664Z,97291.50
2023-05-02T11:22:36.484Z,97292.56
2023-05-02T11:25:05.929Z,97284.53
2023-05-02T11:27:39.761Z,97284.59
2023-05-02T11:30:09.322Z,97274.72
2023-05-02T11:33:09.478Z,97283.75
2023-05-02T11:35:37.354Z,97286.75
2023-05-02T11:38:06.546Z,97282.84
2023-05-02T11:40:35.437Z,97277.25
2023-05-02T11:43:13.682Z,97283.69
2023-05-02T11:45:42.407Z,97284.47
2023-05-02T11:48:11.460Z,97281.38
2023-05-02T11:50:48.613Z,97282.56
2023-05-02T11:53:18.705Z,97275.16
2023-05-02T11:55:52.318Z,97280.09
2023-05-02T11:58:21.619Z,97286.22
2023-05-02T12:00:50.404Z,97281.38
2023-05-02T12:03:29.566Z,97284.16
2023-05-02T12:05:58.143Z,97283.03
2023-05-02T12:08:27.304Z,97283.59
2023-05-02T12:10:57.699Z,97286.00
2023-05-02T12:13:26.667Z,97303.53
2023-05-02T12:15:56.000Z,97299.69
2023-05-02T12:18:26.946Z,97312.03
2023-05-02T12:20:55.978Z,97314.13
2023-05-02T12:23:26.873Z,97324.25
2023-05-02T12:25:56.228Z,97345.28
2023-05-02T12:28:24.305Z,97338.59
2023-05-02T12:30:52.705Z,97338.88
2023-05-02T12:33:20.701Z,97341.81
2023-05-02T12:35:48.293Z,97346.66
2023-05-02T12:38:17.387Z,97342.28
2023-05-02T12:40:50.536Z,97341.56
2023-05-02T12:43:20.268Z,97334.06
2023-05-02T12:45:48.630Z,97336.13
2023-05-02T12:48:21.535Z,97335.84
2023-05-02T12:50:49.379Z,97335.91
2023-05-02T12:53:16.958Z,97332.19
2023-05-02T12:55:46.802Z,97333.53
2023-05-02T12:58:14.476Z,97333.72
2023-05-02T13:00:45.628Z,97336.44
2023-05-02T13:03:14.907Z,97335.13
2023-05-02T13:05:42.589Z,97336.06
2023-05-02T13:08:10.167Z,97333.63
2023-05-02T13:10:37.729Z,97333.00
2023-05-02T13:13:05.476Z,97340.13
2023-05-02T13:15:33.112Z,97335.59
2023-05-02T13:18:02.163Z,97334.97
2023-05-02T13:20:29.997Z,97330.34
2023-05-02T13:22:57.632Z,97325.09
2023-05-02T13:25:26.208Z,97321.72
2023-05-02T13:27:53.757Z,97315.03
2023-05-02T13:30:21.442Z,97306.38
2023-05-02T13:32:49.154Z,97303.63
2023-05-02T13:35:18.069Z,97292.44
2023-05-02T13:37:45.622Z,97295.16
2023-05-02T13:40:14.149Z,97296.97
2023-05-02T13:42:41.755Z,97288.75
2023-05-02T13:45:09.941Z,97286.53
2023-05-02T13:47:38.356Z,97290.03
2023-05-02T13:50:08.455Z,97293.28
2023-05-02T13:52:37.321Z,97294.88
2023-05-02T13:55:05.910Z,97282.75
2023-05-02T13:57:33.440Z,97282.22
2023-05-02T14:00:01.068Z,97281.72
2023-05-02T14:02:28.835Z,97280.16
2023-05-02T14:04:56.484Z,97278.75
2023-05-02T14:07:24.097Z,97280.91
2023-05-02T14:09:53.300Z,97273.97
2023-05-02T14:12:20.816Z,97268.19
2023-05-02T14:14:48.405Z,97267.16
2023-05-02T14:17:15.985Z,97267.66
2023-05-02T14:19:43.469Z,97266.03
2023-05-02T14:22:11.006Z,97269.53
2023-05-02T14:24:38.542Z,97276.50
2023-05-02T14:27:09.151Z,97271.66
2023-05-02T14:29:36.723Z,97268.28
2023-05-02T14:32:04.625Z,97265.94
2023-05-02T14:34:32.348Z,97268.22
2023-05-02T14:36:59.875Z,97259.75
2023-05-02T14:39:27.576Z,97264.41
2023-05-02T14:41:55.212Z,97261.22
2023-05-02T14:44:24.215Z,97267.06
2023-05-02T14:46:55.448Z,97266.25
2023-05-02T14:49:24.497Z,97262.09
2023-05-02T14:51:52.794Z,97264.09
2023-05-02T14:54:20.598Z,97261.84
2023-05-02T14:56:48.333Z,97253.31
2023-05-02T14:59:16.113Z,97263.00
2023-05-02T15:01:45.055Z,97265.31
2023-05-02T15:04:12.876Z,97267.25
2023-05-02T15:06:40.845Z,97262.63
2023-05-02T15:09:08.545Z,97263.38
2023-05-02T15:11:36.046Z,97263.72
2023-05-02T15:14:03.590Z,97267.16
2023-05-02T15:16:31.607Z,97261.97
2023-05-02T15:19:00.640Z,97269.56
2023-05-02T15:21:28.558Z,97264.50
2023-05-02T15:23:56.174Z,97264.50
2023-05-02T15:26:24.247Z,97261.59
2023-05-02T15:28:51.767Z,97264.81
2023-05-02T15:31:19.399Z,97264.50
2023-05-02T15:33:46.993Z,97261.72
2023-05-02T15:36:15.836Z,97262.22
2023-05-02T15:38:43.542Z,97265.69
2023-05-02T15:41:11.750Z,97266.41
2023-05-02T15:43:39.390Z,97264.34
2023-05-02T15:46:07.041Z,97260.06
2023-05-02T15:48:34.827Z,97263.38
2023-05-02T15:51:02.622Z,97264.06
2023-05-02T15:53:31.653Z,97274.78
2023-05-02T15:55:59.162Z,97266.56
2023-05-02T15:58:26.754Z,97273.72
2023-05-02T16:00:55.721Z,97277.25
2023-05-02T16:03:23.369Z,97276.50
2023-05-02T16:05:53.851Z,97275.59
2023-05-02T16:08:21.613Z,97275.75
2023-05-02T16:10:50.477Z,97273.50
2023-05-02T16:13:18.193Z,97277.22
2023-05-02T16:15:47.804Z,97276.31
2023-05-02T16:18:15.414Z,97275.69
2023-05-02T16:20:42.985Z,97281.28
2023-05-02T16:23:10.887Z,97279.28
2023-05-02T16:25:38.395Z,97291.13
2023-05-02T16:28:07.502Z,97283.09
2023-05-02T16:30:37.316Z,97292.31
2023-05-02T16:33:05.039Z,97285.06
2023-05-02T16:35:32.876Z,97290.41
2023-05-02T16:38:00.400Z,97291.84
2023-05-02T16:40:28.470Z,97298.53
2023-05-02T16:42:56.270Z,97302.63
2023-05-02T16:45:25.382Z,97302.25
2023-05-02T16:47:53.528Z,97316.09
2023-05-02T16:50:21.259Z,97326.34
2023-05-02T16:52:48.819Z,97339.91
2023-05-02T16:55:16.523Z,97352.34
2023-05-02T16:57:44.030Z,97360.81
2023-05-02T17:00:15.122Z,97360.91
2023-05-02T17:02:44.091Z,97361.53
2023-05-02T17:05:11.928Z,97364.31
2023-05-02T17:07:39.510Z,97361.03
2023-05-02T17:10:08.254Z,97358.88
2023-05-02T17:12:36.102Z,97362.16
2023-05-02T17:15:04.419Z,97360.59
2023-05-02T17:17:32.086Z,97361.84
2023-05-02T17:20:01.254Z,97359.97
2023-05-02T17:22:29.118Z,97364.22
2023-05-02T17:24:56.733Z,97348.03
2023-05-02T17:27:24.299Z,97347.41
2023-05-02T17:29:51.807Z,97347.53
2023-05-02T17:32:19.391Z,97353.34
2023-05-02T17:34:46.924Z,97360.72
2023-05-02T17:37:15.878Z,97365.00
2023-05-02T17:39:43.519Z,97368.50
2023-05-02T17:42:11.048Z,97368.28
2023-05-02T17:44:38.611Z,97382.09
2023-05-02T17:47:06.210Z,97384.66
2023-05-02T17:49:34.507Z,97378.03
2023-05-02T17:52:02.019Z,97377.06
2023-05-02T17:54:30.841Z,97384.88
2023-05-02T17:56:58.897Z,97375.09
2023-05-02T17:59:27.184Z,97371.00
2023-05-02T18:01:55.010Z,97373.56
2023-05-02T18:04:24.559Z,97380.19
2023-05-02T18:06:52.703Z,97378.00
2023-05-02T18:09:20.324Z,97389.63
2023-05-02T18:11:49.346Z,97393.22
2023-05-02T18:14:16.815Z,97401.16
2023-05-02T18:16:48.381Z,97401.34
2023-05-02T18:19:16.038Z,97402.44
2023-05-02T18:21:44.919Z,97407.47
2023-05-02T18:24:12.607Z,97400.91
2023-05-02T18:26:40.249Z,97404.84
2023-05-02T18:29:09.244Z,97423.94
2023-05-02T18:31:39.905Z,97418.16
2023-05-02T18:34:07.692Z,97429.06
2023-05-02T18:36:35.400Z,97424.25
2023-05-02T18:39:03.543Z,97429.50
2023-05-02T18:41:31.419Z,97425.75
2023-05-02T18:44:00.632Z,97432.25
2023-05-02T18:46:29.901Z,97437.63
2023-05-02T18:48:57.536Z,97425.56
2023-05-02T18:51:25.095Z,97428.06
2023-05-02T18:53:52.595Z,97436.34
2023-05-02T18:56:20.131Z,97438.34
2023-05-02T18:58:48.953Z,97434.22
2023-05-02T19:01:17.269Z,97437.06
2023-05-02T19:03:46.327Z,97437.88
2023-05-02T19:06:14.060Z,97441.81
2023-05-02T19:08:41.926Z,97453.66
2023-05-02T19:11:09.628Z,97451.19
2023-05-02T19:13:37.179Z,97449.84
2023-05-02T19:16:04.847Z,97447.69
2023-05-02T19:18:32.418Z,97452.06
2023-05-02T19:21:10.273Z,97452.53
2023-05-02T19:23:37.888Z,97455.56
2023-05-02T19:26:05.815Z,97455.09
2023-05-02T19:28:33.349Z,97464.06
2023-05-02T19:31:00.847Z,97466.66
2023-05-02T19:33:28.533Z,97465.06
2023-05-02T19:35:56.292Z,97470.16
2023-05-02T19:38:25.156Z,97475.34
2023-05-02T19:40:52.730Z,97485.25
2023-05-02T19:43:20.244Z,97478.66
2023-05-02T19:45:47.808Z,97482.97
2023-05-02T19:48:16.225Z,97490.53
2023-05-02T19:50:43.785Z,97486.03
2023-05-02T19:53:11.395Z,97499.41
2023-05-02T19:55:40.463Z,97504.13
2023-05-02T19:58:08.020Z,97522.09
2023-05-02T20:00:35.642Z,97526.66
2023-05-02T20:03:03.395Z,97524.31
2023-05-02T20:05:31.034Z,97524.09
2023-05-02T20:07:58.943Z,97529.06
2023-05-02T20:10:26.751Z,97526.41
2023-05-02T20:12:55.751Z,97520.72
2023-05-02T20:15:23.385Z,97526.13
2023-05-02T20:17:50.950Z,97525.81
2023-05-02T20:20:18.751Z,97525.06
2023-05-02T20:22:46.303Z,97523.66
2023-05-02T20:25:15.003Z,97531.56
2023-05-02T20:27:42.802Z,97535.69
2023-05-02T20:30:12.442Z,97528.78
2023-05-02T20:32:39.948Z,97528.59
2023-05-02T20:35:08.482Z,97528.78
2023-05-02T20:37:36.105Z,97531.38
2023-05-02T20:40:04.638Z,97528.59
2023-05-02T20:42:33.290Z,97528.41
2023-05-02T20:45:01.964Z,97531.25
2023-05-02T20:47:31.268Z,97533.81
2023-05-02T20:49:59.963Z,97535.69
2023-05-02T20:52:27.682Z,97534.91
2023-05-02T20:54:55.842Z,97533.03
2023-05-02T20:57:24.293Z,97531.75
2023-05-02T20:59:51.870Z,97525.03
2023-05-02T21:02:19.353Z,97514.63
2023-05-02T21:04:48.225Z,97511.84
2023-05-02T21:07:15.802Z,97503.28
2023-05-02T21:09:43.348Z,97504.38
2023-05-02T21:12:10.884Z,97497.16
2023-05-02T21:14:38.433Z,97496.38
2023-05-02T21:17:05.939Z,97492.91
2023-05-02T21:19:34.684Z,97491.34
2023-05-02T21:22:03.529Z,97490.81
2023-05-02T21:24:31.122Z,97497.50
2023-05-02T21:26:58.932Z,97488.56
2023-05-02T21:29:26.461Z,97492.06
2023-05-02T21:31:54.898Z,97485.44
2023-05-02T21:34:22.623Z,97491.84
2023-05-02T21:36:50.293Z,97494.59
2023-05-02T21:39:19.120Z,97488.91
2023-05-02T21:41:46.614Z,97485.72
2023-05-02T21:44:14.285Z,97486.72
2023-05-02T21:46:42.072Z,97484.16
2023-05-02T21:49:09.720Z,97482.75
2023-05-02T21:51:38.722Z,97484.53
2023-05-02T21:54:06.305Z,97482.47
2023-05-02T21:56:35.360Z,97481.59
2023-05-02T21:59:03.372Z,97467.97
2023-05-02T22:01:30.958Z,97477.16
2023-05-02T22:03:58.788Z,97473.00
2023-05-02T22:06:26.647Z,97472.09
2023-05-02T22:08:54.170Z,97474.31
2023-05-02T22:11:24.167Z,97470.72
2023-05-02T22:13:53.014Z,97474.16
2023-05-02T22:16:21.303Z,97473.81
2023-05-02T22:18:49.507Z,97474.38
2023-05-02T22:21:18.739Z,97479.47
2023-05-02T22:23:46.292Z,97471.97
2023-05-02T22:26:14.514Z,97474.03
2023-05-02T22:28:42.027Z,97481.47
2023-05-02T22:31:10.902Z,97478.59
2023-05-02T22:33:38.439Z,97488.09
2023-05-02T22:36:06.378Z,97481.38
2023-05-02T22:38:33.975Z,97487.59
2023-05-02T22:41:01.536Z,97486.34
2023-05-02T22:43:29.041Z,97491.66
2023-05-02T22:45:56.652Z,97499.00
2023-05-02T22:48:25.822Z,97493.81
2023-05-02T22:50:53.397Z,97495.09
2023-05-02T22:53:21.534Z,97487.50
2023-05-02T22:55:49.296Z,97488.56
2023-05-02T22:58:17.168Z,97496.88
2023-05-02T23:00:44.712Z,97487.22
2023-05-02T23:03:12.600Z,97493.03
2023-05-02T23:05:41.605Z,97501.84
2023-05-02T23:08:09.163Z,97496.53
2023-05-02T23:10:36.707Z,97502.31
2023-05-02T23:13:04.221Z,97497.31
2023-05-02T23:15:31.717Z,97497.31
2023-05-02T23:17:59.235Z,97493.28
2023-05-02T23:20:26.748Z,97496.88
2023-05-02T23:22:56.174Z,97498.97
2023-05-02T23:25:24.225Z,97495.84
2023-05-02T23:27:51.766Z,97488.97
2023-05-02T23:30:19.598Z,97487.97
2023-05-02T23:32:47.298Z,97472.53
2023-05-02T23:35:14.887Z,97494.56
2023-05-02T23:37:42.551Z,97476.84
2023-05-02T23:40:11.998Z,97481.94
2023-05-02T23:42:40.334Z,97478.00
2023-05-02T23:45:08.913Z,97476.22
2023-05-02T23:47:36.520Z,97477.94
2023-05-02T23:50:05.348Z,97477.66
2023-05-02T23:52:33.019Z,97472.56
2023-05-02T23:55:00.571Z,97476.59
2023-05-02T23:57:31.655Z,97477.81
2023-05-02T23:59:59.114Z,97475.53
